Nearby METAR Reports


KPVF - Placerville, California, USA
Distance from station: E 5mi, 14km
Updated: 02/21/2024 6:35am
Overcast
Overcast
 Wind from SSE
Wind: SSE 6 mph , 9 km/h
Temperature: 41°F , 5°C
Wind Chill: 37°F , 3°C
Dew Point: 41°F , 5°C
Humidity: 100%
Barometer: 30.11 inHg , 1019.6 hPa
Clouds: Overcast
Visibility: 1/2 mile , 0.8 km
Cloud details: Overcast 200 ft
2024/02/21 14:35 KPVF 211435Z AUTO 16005KT 1/2SM OVC002 05/05 A3011 RMK AO1 P0003
KAUN - Auburn, California, USA
Distance from station: NE 37mi, 14km
Updated: 02/21/2024 6:35am
Mist, Overcast
Mist, Overcast
 Wind from ESE
Wind: ESE 6 mph , 9 km/h
Temperature: 45°F , 7°C
Wind Chill: 42°F , 6°C
Dew Point: 45°F , 7°C
Humidity: 100%
Barometer: 30.11 inHg , 1019.6 hPa
Summary: Mist
Clouds: Overcast
Visibility: 3 miles , 5 km
Cloud details: Overcast 300 ft
2024/02/21 14:35 KAUN 211435Z AUTO 12005KT 3SM BR OVC003 07/07 A3011 RMK A01
 
KMHR - Mather, California, USA
Distance from station: NNW 30mi, 23km
Updated: 02/21/2024 6:35am
Mist, Overcast
Mist, Overcast
 Wind from calm
Wind: Calm
Temperature: 48°F , 9°C
Dew Point: 48°F , 9°C
Humidity: 100%
Barometer: 30.11 inHg , 1019.6 hPa
Summary: Mist
Clouds: Overcast
Visibility: 3 miles , 5 km
Cloud details: Overcast 300 ft
2024/02/21 14:35 KMHR 211435Z AUTO 00000KT 3SM BR OVC003 09/09 A3011 RMK AO2
KSAC - Sacramento, California, USA
Distance from station: WNW 45mi, 50km
Updated: 02/21/2024 6:11am
Fog, Overcast
Fog, Overcast
 Wind from SE
Wind: SE 5 mph , 7 km/h
Temperature: 48°F , 9°C
Wind Chill: 46°F , 8°C
Dew Point: 46°F , 8°C
Humidity: 94%
Barometer: 30.12 inHg , 1020 hPa
Summary: Fog
Clouds: Overcast
Visibility: 1/4 mile , 0.4 km
Cloud details: Overcast 200 ft
2024/02/21 14:11 KSAC 211411Z 13004KT 1/4SM FG VV002 09/08 A3012 RMK AO2 T00890083
 
KSMF - Sacramento Metro, California, USA
Distance from station: NNE 50mi, 51km
Updated: 02/21/2024 6:44am
Mist, Patches of, Fog, Clear
Mist, Patches of, Fog, Clear
 Wind from S
Wind: S 7 mph , 11 km/h
Temperature: 48°F , 9°C
Wind Chill: 45°F , 7°C
Dew Point: 46°F , 8°C
Humidity: 94%
Barometer: 30.11 inHg , 1019.6 hPa
Summary: Mist, Patches of, Fog
Clouds: Clear
Visibility: 3/4 mile , 1.2 km
2024/02/21 14:44 KSMF 211444Z 18006KT 3/4SM R17R/1800FT BR BCFG CLR 09/08 A3011 RMK AO2 TWR VIS 2 1/2 T00940078
KBAB - Beale AFB - Marysville, California, USA
Distance from station: NW 21mi, 34km
Updated: 02/21/2024 6:40am
Few Clouds
Few Clouds
 Wind from ESE
Wind: ESE 8 mph , 13 km/h
Temperature: 50°F , 10°C
Wind Chill: 47°F , 8°C
Dew Point: 46°F , 8°C
Humidity: 88%
Barometer: 30.11 inHg , 1019.6 hPa
Clouds: Few Clouds
Visibility: 10 miles , 16 km
Cloud details: Few Clouds 1300 ft
2024/02/21 14:40 KBAB 211440Z 11007KT 10SM FEW013 10/08 A3011 RMK AO2A SLP199 $
 
KOVE - Oroville, California, USA
Distance from station: ESE 80mi, 43km
Updated: 02/21/2024 6:18am
Overcast
Overcast
 Wind from SE
Wind: SE 8 mph , 13 km/h
Temperature: 52°F , 11°C
Dew Point: 48°F , 9°C
Humidity: 88%
Barometer: 30.11 inHg , 1019.6 hPa
Clouds: Overcast
Visibility: 10 miles , 16 km
Cloud details: Partly cloudy 900 ft
Overcast 1500 ft
2024/02/21 14:18 KOVE 211418Z AUTO 13007KT 10SM SCT009 OVC015 11/09 A3011 RMK AO2 T01060089
KRDD - Redding, California, USA
Distance from station: SSE 225mi, 44km
Updated: 02/21/2024 6:38am
Overcast
Overcast
 Wind from SSW
Wind: SSW 3 mph , 6 km/h
Temperature: 50°F , 10°C
Dew Point: 46°F , 8°C
Humidity: 88%
Barometer: 30.08 inHg , 1018.6 hPa
Clouds: Overcast
Visibility: 10 miles , 16 km
Cloud details: Few Clouds 1200 ft
Mostly cloudy 2600 ft
Overcast 3100 ft
2024/02/21 14:38 KRDD 211438Z 21003KT 10SM FEW012 BKN026 OVC031 10/08 A3008 RMK AO2 T01000083
 
KTRK - Tahoe-Truckee, California, USA
Distance from station: NW 60mi, 49km
Updated: 02/21/2024 6:35am
Freezing fog, Overcast
Freezing fog, Overcast
 Wind from calm
Wind: Calm
Temperature: 27°F , -3°C
Dew Point: 27°F , -3°C
Humidity: 100%
Barometer: 30.03 inHg , 1016.9 hPa
Summary: Freezing Fog
Clouds: Overcast
Visibility: 1/2 mile , 0.8 km
Cloud details: Mostly cloudy 300 ft
Overcast 800 ft
2024/02/21 14:35 KTRK 211435Z AUTO 00000KT 1/2SM FZFG BKN003 OVC008 M03/M03 A3003 RMK AO2
KTVL - South Lake Tahoe, California, USA
Distance from station: N 45mi, 44km
Updated: 02/21/2024 6:42am
Light snow, Mist, Overcast
Light snow, Mist, Overcast
 Wind from S
Wind: S 6 mph , 9 km/h
Temperature: 30°F , -1°C
Wind Chill: 24°F , -4°C
Dew Point: 28°F , -2°C
Humidity: 93%
Barometer: 30.01 inHg , 1016.3 hPa
Summary: Light snow, Mist
Clouds: Overcast
Visibility: 3 miles , 5 km
Cloud details: Overcast 2300 ft
2024/02/21 14:42 KTVL 211442Z AUTO 19005KT 3SM -SN BR OVC023 M01/M02 A3001 RMK AO2 SNB09 P0001 T10111022
 
KBLU - EMIGRANT GAP, California, USA
Distance from station: NNW 31mi, 50km
Updated: 02/21/2024 6:46am
Light snow, Fog, Overcast
Light snow, Fog, Overcast
 Wind from S
Wind: S 5 mph , 7 km/h
Temperature: 32°F , 0°C
Wind Chill: 27°F , -3°C
Dew Point: 30°F , -1°C
Humidity: 93%
Barometer: 30.05 inHg , 1017.6 hPa
Summary: Light snow, Fog
Clouds: Overcast
Visibility: 1/4 mile , 0.4 km
Cloud details: Overcast 400 ft
2024/02/21 14:46 KBLU 211446Z AUTO 17004KT 1/4SM -SN FG VV004 00/M01 A3005 RMK AO2 P0003
KACV - Eureka, California, USA
Distance from station: ENE 387mi, 19km
Updated: 02/21/2024 5:53am
Light rain, Overcast
Light rain, Overcast
 Wind from S
Wind: S 6 mph , 9 km/h
Temperature: 48°F , 9°C
Wind Chill: 45°F , 7°C
Dew Point: 43°F , 6°C
Humidity: 82%
Barometer: 30.04 inHg , 1017.3 hPa
Summary: Light rain
Clouds: Overcast
Visibility: 10 miles , 16 km
Cloud details: Partly cloudy 4300 ft
Overcast 5000 ft
2024/02/21 13:53 KACV 211353Z AUTO 17005KT 10SM -RA SCT043 OVC050 09/06 A3004 RMK AO2 RAB47 SLP179 P0000 T00890061 $